sensor_id;sensor_type;location;lat;lon;timestamp;pressure;altitude;pressure_sealevel;temperature;humidity
57791;BME280;43621;51.798;21.588;2022-10-16T00:02:07;100100.09;;;13.73;65.50
57791;BME280;43621;51.798;21.588;2022-10-16T00:06:21;100103.69;;;13.69;65.49
57791;BME280;43621;51.798;21.588;2022-10-16T00:14:52;100109.77;;;13.70;65.78
57791;BME280;43621;51.798;21.588;2022-10-16T00:18:58;100110.64;;;13.71;65.70
57791;BME280;43621;51.798;21.588;2022-10-16T00:23:03;100106.42;;;13.71;65.86
57791;BME280;43621;51.798;21.588;2022-10-16T00:27:08;100110.45;;;13.66;65.85
57791;BME280;43621;51.798;21.588;2022-10-16T00:31:13;100109.45;;;13.59;65.86
57791;BME280;43621;51.798;21.588;2022-10-16T00:35:19;100119.33;;;13.54;66.03
57791;BME280;43621;51.798;21.588;2022-10-16T00:39:24;100127.54;;;13.52;66.29
57791;BME280;43621;51.798;21.588;2022-10-16T00:43:38;100122.45;;;13.51;66.36
57791;BME280;43621;51.798;21.588;2022-10-16T00:47:45;100111.81;;;13.46;66.41
57791;BME280;43621;51.798;21.588;2022-10-16T00:51:55;100110.34;;;13.45;66.37
57791;BME280;43621;51.798;21.588;2022-10-16T00:55:59;100106.59;;;13.46;66.74
57791;BME280;43621;51.798;21.588;2022-10-16T01:00:09;100103.45;;;13.44;67.01
57791;BME280;43621;51.798;21.588;2022-10-16T01:04:14;100105.52;;;13.39;66.92
57791;BME280;43621;51.798;21.588;2022-10-16T01:08:25;100114.89;;;13.39;67.17
57791;BME280;43621;51.798;21.588;2022-10-16T01:12:41;100118.64;;;13.38;67.30
57791;BME280;43621;51.798;21.588;2022-10-16T01:16:55;100122.27;;;13.35;67.31
57791;BME280;43621;51.798;21.588;2022-10-16T01:21:05;100123.66;;;13.32;67.44
57791;BME280;43621;51.798;21.588;2022-10-16T01:25:17;100120.27;;;13.32;67.83
57791;BME280;43621;51.798;21.588;2022-10-16T01:29:27;100118.71;;;13.34;67.83
57791;BME280;43621;51.798;21.588;2022-10-16T01:33:38;100116.70;;;13.31;67.60
57791;BME280;43621;51.798;21.588;2022-10-16T01:37:48;100117.06;;;13.29;67.47
57791;BME280;43621;51.798;21.588;2022-10-16T01:41:59;100107.38;;;13.30;67.88
57791;BME280;43621;51.798;21.588;2022-10-16T01:46:06;100109.95;;;13.30;67.99
57791;BME280;43621;51.798;21.588;2022-10-16T01:50:14;100116.40;;;13.31;67.91
57791;BME280;43621;51.798;21.588;2022-10-16T01:54:21;100119.89;;;13.29;67.75
57791;BME280;43621;51.798;21.588;2022-10-16T01:58:29;100122.04;;;13.30;67.82
57791;BME280;43621;51.798;21.588;2022-10-16T02:02:39;100130.98;;;13.35;67.83
57791;BME280;43621;51.798;21.588;2022-10-16T02:06:45;100142.52;;;13.39;67.71
57791;BME280;43621;51.798;21.588;2022-10-16T02:10:50;100143.05;;;13.41;67.55
57791;BME280;43621;51.798;21.588;2022-10-16T02:14:55;100139.83;;;13.42;67.31
57791;BME280;43621;51.798;21.588;2022-10-16T02:19:00;100138.91;;;13.42;67.49
57791;BME280;43621;51.798;21.588;2022-10-16T02:23:05;100141.36;;;13.44;67.59
57791;BME280;43621;51.798;21.588;2022-10-16T02:27:19;100146.38;;;13.45;67.64
57791;BME280;43621;51.798;21.588;2022-10-16T02:31:29;100147.34;;;13.44;67.62
57791;BME280;43621;51.798;21.588;2022-10-16T02:35:37;100150.27;;;13.44;67.31
57791;BME280;43621;51.798;21.588;2022-10-16T02:39:43;100152.05;;;13.46;67.35
57791;BME280;43621;51.798;21.588;2022-10-16T02:43:48;100153.27;;;13.46;67.38
57791;BME280;43621;51.798;21.588;2022-10-16T02:47:54;100149.04;;;13.46;67.42
57791;BME280;43621;51.798;21.588;2022-10-16T02:51:59;100143.11;;;13.44;67.28
57791;BME280;43621;51.798;21.588;2022-10-16T02:56:04;100134.67;;;13.42;67.61
57791;BME280;43621;51.798;21.588;2022-10-16T03:00:12;100131.94;;;13.40;67.61
57791;BME280;43621;51.798;21.588;2022-10-16T03:04:17;100130.36;;;13.37;67.77
57791;BME280;43621;51.798;21.588;2022-10-16T03:08:22;100134.64;;;13.31;67.81
57791;BME280;43621;51.798;21.588;2022-10-16T03:12:30;100139.08;;;13.27;67.87
57791;BME280;43621;51.798;21.588;2022-10-16T03:16:37;100146.64;;;13.27;67.99
57791;BME280;43621;51.798;21.588;2022-10-16T03:20:46;100149.56;;;13.31;68.13
57791;BME280;43621;51.798;21.588;2022-10-16T03:24:52;100142.77;;;13.32;68.05
57791;BME280;43621;51.798;21.588;2022-10-16T03:28:57;100147.58;;;13.31;68.02
57791;BME280;43621;51.798;21.588;2022-10-16T03:33:02;100154.85;;;13.32;68.03
57791;BME280;43621;51.798;21.588;2022-10-16T03:37:07;100160.35;;;13.37;68.24
57791;BME280;43621;51.798;21.588;2022-10-16T03:41:12;100167.89;;;13.38;68.27
57791;BME280;43621;51.798;21.588;2022-10-16T03:45:17;100173.39;;;13.39;68.24
57791;BME280;43621;51.798;21.588;2022-10-16T03:49:22;100178.67;;;13.39;68.08
57791;BME280;43621;51.798;21.588;2022-10-16T03:53:27;100182.54;;;13.41;68.33
57791;BME280;43621;51.798;21.588;2022-10-16T03:57:32;100186.60;;;13.44;68.46
57791;BME280;43621;51.798;21.588;2022-10-16T04:01:37;100187.96;;;13.44;68.57
57791;BME280;43621;51.798;21.588;2022-10-16T04:05:42;100190.41;;;13.43;68.55
57791;BME280;43621;51.798;21.588;2022-10-16T04:09:47;100184.59;;;13.38;68.43
57791;BME280;43621;51.798;21.588;2022-10-16T04:13:52;100184.09;;;13.38;68.58
57791;BME280;43621;51.798;21.588;2022-10-16T04:17:56;100184.31;;;13.41;68.63
57791;BME280;43621;51.798;21.588;2022-10-16T04:22:01;100188.05;;;13.43;68.57
57791;BME280;43621;51.798;21.588;2022-10-16T04:26:07;100193.20;;;13.43;68.42
57791;BME280;43621;51.798;21.588;2022-10-16T04:30:12;100192.32;;;13.43;68.55
57791;BME280;43621;51.798;21.588;2022-10-16T04:34:17;100192.06;;;13.44;68.80
57791;BME280;43621;51.798;21.588;2022-10-16T04:38:22;100190.84;;;13.42;68.55
57791;BME280;43621;51.798;21.588;2022-10-16T04:42:27;100195.95;;;13.36;68.61
57791;BME280;43621;51.798;21.588;2022-10-16T04:46:32;100196.84;;;13.33;68.60
57791;BME280;43621;51.798;21.588;2022-10-16T04:50:37;100201.27;;;13.34;68.56
57791;BME280;43621;51.798;21.588;2022-10-16T04:54:42;100205.80;;;13.34;68.93
57791;BME280;43621;51.798;21.588;2022-10-16T04:58:46;100212.33;;;13.32;68.80
57791;BME280;43621;51.798;21.588;2022-10-16T05:02:52;100214.60;;;13.29;68.78
57791;BME280;43621;51.798;21.588;2022-10-16T05:06:57;100213.34;;;13.24;68.86
57791;BME280;43621;51.798;21.588;2022-10-16T05:11:02;100212.45;;;13.21;68.88
57791;BME280;43621;51.798;21.588;2022-10-16T05:15:09;100217.92;;;13.18;69.02
57791;BME280;43621;51.798;21.588;2022-10-16T05:19:15;100222.21;;;13.15;69.06
57791;BME280;43621;51.798;21.588;2022-10-16T05:23:19;100230.84;;;13.15;68.83
57791;BME280;43621;51.798;21.588;2022-10-16T05:27:24;100237.05;;;13.14;68.99
57791;BME280;43621;51.798;21.588;2022-10-16T05:31:29;100240.85;;;13.17;69.09
57791;BME280;43621;51.798;21.588;2022-10-16T05:35:35;100242.20;;;13.25;69.18
57791;BME280;43621;51.798;21.588;2022-10-16T05:39:43;100241.22;;;13.36;69.09
57791;BME280;43621;51.798;21.588;2022-10-16T05:43:49;100244.07;;;13.46;68.83
57791;BME280;43621;51.798;21.588;2022-10-16T05:47:54;100241.46;;;13.72;68.75
57791;BME280;43621;51.798;21.588;2022-10-16T05:51:59;100247.42;;;14.17;68.37
57791;BME280;43621;51.798;21.588;2022-10-16T05:56:05;100249.95;;;14.44;67.88
57791;BME280;43621;51.798;21.588;2022-10-16T06:00:12;100252.03;;;15.94;68.45
57791;BME280;43621;51.798;21.588;2022-10-16T06:04:17;100251.13;;;18.10;66.79
57791;BME280;43621;51.798;21.588;2022-10-16T06:08:23;100252.61;;;19.59;63.87
57791;BME280;43621;51.798;21.588;2022-10-16T06:12:28;100258.85;;;20.84;60.79
57791;BME280;43621;51.798;21.588;2022-10-16T06:16:33;100260.59;;;21.51;57.17
57791;BME280;43621;51.798;21.588;2022-10-16T06:20:39;100267.14;;;21.36;55.09
57791;BME280;43621;51.798;21.588;2022-10-16T06:24:43;100274.73;;;20.88;54.48
57791;BME280;43621;51.798;21.588;2022-10-16T06:28:49;100277.10;;;19.95;54.51
57791;BME280;43621;51.798;21.588;2022-10-16T06:32:54;100275.06;;;19.12;55.36
57791;BME280;43621;51.798;21.588;2022-10-16T06:36:59;100275.04;;;19.30;55.24
57791;BME280;43621;51.798;21.588;2022-10-16T06:41:05;100273.02;;;19.79;54.64
57791;BME280;43621;51.798;21.588;2022-10-16T06:45:11;100282.21;;;19.84;54.14
57791;BME280;43621;51.798;21.588;2022-10-16T06:49:17;100287.25;;;21.02;52.77
57791;BME280;43621;51.798;21.588;2022-10-16T06:53:28;100297.35;;;21.36;51.98
57791;BME280;43621;51.798;21.588;2022-10-16T06:57:33;100295.34;;;21.41;51.39
57791;BME280;43621;51.798;21.588;2022-10-16T07:01:38;100289.97;;;22.64;49.97
57791;BME280;43621;51.798;21.588;2022-10-16T07:05:43;100289.39;;;24.79;47.72
57791;BME280;43621;51.798;21.588;2022-10-16T07:09:48;100286.34;;;26.22;46.30
57791;BME280;43621;51.798;21.588;2022-10-16T07:13:53;100296.70;;;26.99;44.60
57791;BME280;43621;51.798;21.588;2022-10-16T07:17:58;100306.23;;;28.04;42.83
57791;BME280;43621;51.798;21.588;2022-10-16T07:22:03;100305.63;;;28.98;41.52
57791;BME280;43621;51.798;21.588;2022-10-16T07:26:09;100307.06;;;29.79;39.80
57791;BME280;43621;51.798;21.588;2022-10-16T07:30:15;100314.15;;;30.83;36.77
57791;BME280;43621;51.798;21.588;2022-10-16T07:34:20;100310.02;;;31.34;35.21
57791;BME280;43621;51.798;21.588;2022-10-16T07:38:29;100306.80;;;30.89;33.72
57791;BME280;43621;51.798;21.588;2022-10-16T07:42:33;100312.46;;;30.51;32.65
57791;BME280;43621;51.798;21.588;2022-10-16T07:46:38;100319.19;;;30.67;32.12
57791;BME280;43621;51.798;21.588;2022-10-16T07:50:43;100336.52;;;31.45;31.34
57791;BME280;43621;51.798;21.588;2022-10-16T07:54:48;100344.67;;;32.65;31.06
57791;BME280;43621;51.798;21.588;2022-10-16T07:58:54;100343.55;;;34.97;30.07
57791;BME280;43621;51.798;21.588;2022-10-16T08:02:59;100344.55;;;37.76;26.23
57791;BME280;43621;51.798;21.588;2022-10-16T08:07:08;100344.66;;;37.94;24.65
57791;BME280;43621;51.798;21.588;2022-10-16T08:11:13;100341.59;;;35.01;25.04
57791;BME280;43621;51.798;21.588;2022-10-16T08:15:19;100338.98;;;33.66;26.85
57791;BME280;43621;51.798;21.588;2022-10-16T08:19:25;100343.73;;;33.26;27.23
57791;BME280;43621;51.798;21.588;2022-10-16T08:23:30;100346.30;;;34.81;26.53
57791;BME280;43621;51.798;21.588;2022-10-16T08:27:35;100346.95;;;37.40;25.44
57791;BME280;43621;51.798;21.588;2022-10-16T08:31:40;100350.98;;;39.65;22.46
57791;BME280;43621;51.798;21.588;2022-10-16T08:35:51;100348.19;;;40.79;20.28
57791;BME280;43621;51.798;21.588;2022-10-16T08:39:58;100346.61;;;40.75;19.53
57791;BME280;43621;51.798;21.588;2022-10-16T08:44:21;100340.33;;;40.24;19.60
57791;BME280;43621;51.798;21.588;2022-10-16T08:48:33;100343.85;;;40.13;19.73
57791;BME280;43621;51.798;21.588;2022-10-16T08:52:43;100343.92;;;40.11;19.51
57791;BME280;43621;51.798;21.588;2022-10-16T08:56:49;100342.32;;;41.11;19.47
57791;BME280;43621;51.798;21.588;2022-10-16T09:00:56;100348.90;;;42.29;18.85
57791;BME280;43621;51.798;21.588;2022-10-16T09:05:15;100353.38;;;42.00;17.61
57791;BME280;43621;51.798;21.588;2022-10-16T09:09:47;100345.54;;;41.93;17.90
57791;BME280;43621;51.798;21.588;2022-10-16T09:14:01;100338.98;;;42.76;17.69
57791;BME280;43621;51.798;21.588;2022-10-16T09:18:14;100340.18;;;43.39;17.39
57791;BME280;43621;51.798;21.588;2022-10-16T09:22:24;100329.77;;;42.77;17.38
57791;BME280;43621;51.798;21.588;2022-10-16T09:26:31;100335.42;;;39.54;18.51
57791;BME280;43621;51.798;21.588;2022-10-16T09:30:36;100341.23;;;35.91;20.71
57791;BME280;43621;51.798;21.588;2022-10-16T09:34:45;100346.25;;;33.30;22.85
57791;BME280;43621;51.798;21.588;2022-10-16T09:39:00;100351.90;;;31.11;24.74
57791;BME280;43621;51.798;21.588;2022-10-16T09:43:17;100354.67;;;29.80;26.57
57791;BME280;43621;51.798;21.588;2022-10-16T09:47:25;100361.92;;;28.70;27.96
57791;BME280;43621;51.798;21.588;2022-10-16T09:51:32;100365.30;;;27.87;29.15
57791;BME280;43621;51.798;21.588;2022-10-16T09:55:47;100369.58;;;27.32;30.43
57791;BME280;43621;51.798;21.588;2022-10-16T09:59:53;100368.23;;;27.38;31.19
57791;BME280;43621;51.798;21.588;2022-10-16T10:03:59;100359.27;;;29.19;30.51
57791;BME280;43621;51.798;21.588;2022-10-16T10:08:05;100352.73;;;29.77;29.22
57791;BME280;43621;51.798;21.588;2022-10-16T10:12:20;100356.67;;;28.88;29.52
57791;BME280;43621;51.798;21.588;2022-10-16T10:16:26;100356.07;;;27.73;30.64
57791;BME280;43621;51.798;21.588;2022-10-16T10:20:33;100353.40;;;27.00;31.57
57791;BME280;43621;51.798;21.588;2022-10-16T10:24:39;100349.33;;;26.52;32.61
57791;BME280;43621;51.798;21.588;2022-10-16T10:28:56;100344.30;;;27.05;32.58
57791;BME280;43621;51.798;21.588;2022-10-16T10:33:28;100339.70;;;26.62;32.87
57791;BME280;43621;51.798;21.588;2022-10-16T10:42:17;100336.70;;;28.30;32.40
57791;BME280;43621;51.798;21.588;2022-10-16T10:46:32;100343.92;;;28.73;31.46
57791;BME280;43621;51.798;21.588;2022-10-16T10:50:41;100345.18;;;28.36;31.84
57791;BME280;43621;51.798;21.588;2022-10-16T10:54:51;100343.71;;;28.69;31.69
57791;BME280;43621;51.798;21.588;2022-10-16T10:59:11;100344.45;;;28.75;31.55
57791;BME280;43621;51.798;21.588;2022-10-16T11:03:35;100336.21;;;28.12;31.99
57791;BME280;43621;51.798;21.588;2022-10-16T11:07:50;100326.45;;;27.11;33.29
57791;BME280;43621;51.798;21.588;2022-10-16T11:12:00;100317.02;;;26.14;34.48
57791;BME280;43621;51.798;21.588;2022-10-16T11:16:13;100313.27;;;25.36;35.70
57791;BME280;43621;51.798;21.588;2022-10-16T11:20:24;100309.98;;;24.90;36.22
57791;BME280;43621;51.798;21.588;2022-10-16T11:24:37;100305.62;;;24.78;36.60
57791;BME280;43621;51.798;21.588;2022-10-16T11:28:48;100306.01;;;24.82;37.07
57791;BME280;43621;51.798;21.588;2022-10-16T11:33:02;100308.05;;;24.64;37.30
57791;BME280;43621;51.798;21.588;2022-10-16T11:37:12;100315.13;;;24.34;37.80
57791;BME280;43621;51.798;21.588;2022-10-16T11:41:26;100314.59;;;24.24;38.27
57791;BME280;43621;51.798;21.588;2022-10-16T11:45:39;100305.39;;;24.19;38.72
57791;BME280;43621;51.798;21.588;2022-10-16T11:49:47;100304.79;;;23.95;39.63
57791;BME280;43621;51.798;21.588;2022-10-16T11:53:59;100308.07;;;23.45;40.68
57791;BME280;43621;51.798;21.588;2022-10-16T11:58:13;100310.81;;;23.24;41.17
57791;BME280;43621;51.798;21.588;2022-10-16T12:02:31;100321.52;;;23.22;41.25
57791;BME280;43621;51.798;21.588;2022-10-16T12:06:42;100321.71;;;23.24;41.36
57791;BME280;43621;51.798;21.588;2022-10-16T12:10:49;100323.21;;;23.34;41.58
57791;BME280;43621;51.798;21.588;2022-10-16T12:15:18;100322.66;;;23.38;41.64
57791;BME280;43621;51.798;21.588;2022-10-16T12:19:24;100325.52;;;23.33;41.77
57791;BME280;43621;51.798;21.588;2022-10-16T12:23:31;100334.55;;;23.23;41.78
57791;BME280;43621;51.798;21.588;2022-10-16T12:27:37;100332.81;;;23.07;42.06
57791;BME280;43621;51.798;21.588;2022-10-16T12:31:45;100330.31;;;22.86;42.47
57791;BME280;43621;51.798;21.588;2022-10-16T12:35:51;100328.73;;;22.63;42.85
57791;BME280;43621;51.798;21.588;2022-10-16T12:39:57;100316.84;;;22.44;43.17
57791;BME280;43621;51.798;21.588;2022-10-16T12:44:04;100317.96;;;22.33;43.48
57791;BME280;43621;51.798;21.588;2022-10-16T12:48:21;100321.21;;;22.33;43.65
57791;BME280;43621;51.798;21.588;2022-10-16T12:52:34;100325.64;;;22.35;43.71
57791;BME280;43621;51.798;21.588;2022-10-16T12:56:49;100322.66;;;22.30;43.74
57791;BME280;43621;51.798;21.588;2022-10-16T13:00:59;100318.61;;;22.19;43.80
57791;BME280;43621;51.798;21.588;2022-10-16T13:05:22;100319.84;;;22.12;43.85
57791;BME280;43621;51.798;21.588;2022-10-16T13:09:39;100320.40;;;22.07;44.19
57791;BME280;43621;51.798;21.588;2022-10-16T13:14:09;100329.34;;;21.94;44.49
57791;BME280;43621;51.798;21.588;2022-10-16T13:18:26;100333.71;;;21.82;44.69
57791;BME280;43621;51.798;21.588;2022-10-16T13:22:42;100334.83;;;21.75;45.00
57791;BME280;43621;51.798;21.588;2022-10-16T13:26:55;100328.42;;;21.72;45.39
57791;BME280;43621;51.798;21.588;2022-10-16T13:31:04;100327.30;;;21.62;45.89
57791;BME280;43621;51.798;21.588;2022-10-16T13:35:26;100324.25;;;21.41;46.14
57791;BME280;43621;51.798;21.588;2022-10-16T13:39:32;100328.11;;;21.32;46.38
57791;BME280;43621;51.798;21.588;2022-10-16T13:43:39;100325.31;;;21.26;46.96
57791;BME280;43621;51.798;21.588;2022-10-16T13:47:44;100331.52;;;21.04;47.25
57791;BME280;43621;51.798;21.588;2022-10-16T13:51:57;100336.96;;;20.76;47.56
57791;BME280;43621;51.798;21.588;2022-10-16T13:56:04;100345.98;;;20.57;47.70
57791;BME280;43621;51.798;21.588;2022-10-16T14:00:22;100350.83;;;20.46;48.11
57791;BME280;43621;51.798;21.588;2022-10-16T14:04:29;100356.48;;;20.36;48.39
57791;BME280;43621;51.798;21.588;2022-10-16T14:08:36;100363.21;;;20.29;48.88
57791;BME280;43621;51.798;21.588;2022-10-16T14:12:41;100364.79;;;20.11;49.09
57791;BME280;43621;51.798;21.588;2022-10-16T14:16:46;100371.14;;;19.97;49.11
57791;BME280;43621;51.798;21.588;2022-10-16T14:20:52;100370.15;;;19.82;49.57
57791;BME280;43621;51.798;21.588;2022-10-16T14:24:57;100375.38;;;19.69;49.83
57791;BME280;43621;51.798;21.588;2022-10-16T14:29:13;100372.73;;;19.54;49.95
57791;BME280;43621;51.798;21.588;2022-10-16T14:33:24;100376.79;;;19.41;50.45
57791;BME280;43621;51.798;21.588;2022-10-16T14:37:30;100379.43;;;19.29;50.95
57791;BME280;43621;51.798;21.588;2022-10-16T14:41:43;100376.03;;;19.17;51.24
57791;BME280;43621;51.798;21.588;2022-10-16T14:45:54;100378.80;;;19.10;51.42
57791;BME280;43621;51.798;21.588;2022-10-16T14:50:00;100381.63;;;19.05;51.79
57791;BME280;43621;51.798;21.588;2022-10-16T14:54:05;100382.12;;;18.98;52.20
57791;BME280;43621;51.798;21.588;2022-10-16T14:58:15;100380.60;;;18.91;52.59
57791;BME280;43621;51.798;21.588;2022-10-16T15:02:25;100380.06;;;18.84;52.95
57791;BME280;43621;51.798;21.588;2022-10-16T15:06:31;100384.96;;;18.81;53.40
57791;BME280;43621;51.798;21.588;2022-10-16T15:10:41;100384.89;;;18.80;53.22
57791;BME280;43621;51.798;21.588;2022-10-16T15:14:47;100392.71;;;18.80;53.17
57791;BME280;43621;51.798;21.588;2022-10-16T15:18:52;100398.44;;;18.78;53.47
57791;BME280;43621;51.798;21.588;2022-10-16T15:22:57;100399.39;;;18.73;53.43
57791;BME280;43621;51.798;21.588;2022-10-16T15:27:02;100401.64;;;18.68;53.89
57791;BME280;43621;51.798;21.588;2022-10-16T15:31:07;100399.05;;;18.59;54.22
57791;BME280;43621;51.798;21.588;2022-10-16T15:35:12;100397.64;;;18.50;54.34
57791;BME280;43621;51.798;21.588;2022-10-16T15:39:19;100396.41;;;18.42;54.71
57791;BME280;43621;51.798;21.588;2022-10-16T15:43:24;100389.77;;;18.32;54.78
57791;BME280;43621;51.798;21.588;2022-10-16T15:47:29;100393.43;;;18.27;55.09
57791;BME280;43621;51.798;21.588;2022-10-16T15:51:34;100401.09;;;18.21;55.47
57791;BME280;43621;51.798;21.588;2022-10-16T15:55:42;100406.07;;;18.15;55.35
57791;BME280;43621;51.798;21.588;2022-10-16T15:59:47;100412.92;;;18.10;55.39
57791;BME280;43621;51.798;21.588;2022-10-16T16:03:54;100421.11;;;18.05;55.37
57791;BME280;43621;51.798;21.588;2022-10-16T16:07:59;100431.52;;;18.01;55.38
57791;BME280;43621;51.798;21.588;2022-10-16T16:12:04;100434.19;;;17.98;55.36
57791;BME280;43621;51.798;21.588;2022-10-16T16:16:10;100439.77;;;17.91;55.43
57791;BME280;43621;51.798;21.588;2022-10-16T16:20:16;100444.55;;;17.85;55.62
57791;BME280;43621;51.798;21.588;2022-10-16T16:24:21;100452.37;;;17.80;55.95
57791;BME280;43621;51.798;21.588;2022-10-16T16:28:26;100445.85;;;17.78;56.04
57791;BME280;43621;51.798;21.588;2022-10-16T16:32:31;100457.67;;;17.78;56.23
57791;BME280;43621;51.798;21.588;2022-10-16T16:36:36;100465.56;;;17.77;56.35
57791;BME280;43621;51.798;21.588;2022-10-16T16:40:41;100465.47;;;17.75;56.37
57791;BME280;43621;51.798;21.588;2022-10-16T16:44:48;100468.38;;;17.71;56.54
57791;BME280;43621;51.798;21.588;2022-10-16T16:48:54;100464.66;;;17.68;56.51
57791;BME280;43621;51.798;21.588;2022-10-16T16:53:00;100466.10;;;17.65;56.48
57791;BME280;43621;51.798;21.588;2022-10-16T16:57:05;100470.64;;;17.58;56.68
57791;BME280;43621;51.798;21.588;2022-10-16T17:01:10;100475.69;;;17.53;56.87
57791;BME280;43621;51.798;21.588;2022-10-16T17:05:15;100477.20;;;17.49;57.03
57791;BME280;43621;51.798;21.588;2022-10-16T17:09:21;100484.23;;;17.48;57.15
57791;BME280;43621;51.798;21.588;2022-10-16T17:13:28;100486.59;;;17.48;57.49
57791;BME280;43621;51.798;21.588;2022-10-16T17:17:33;100493.46;;;17.47;57.47
57791;BME280;43621;51.798;21.588;2022-10-16T17:21:38;100496.27;;;17.46;57.99
57791;BME280;43621;51.798;21.588;2022-10-16T17:25:44;100498.86;;;17.43;57.77
57791;BME280;43621;51.798;21.588;2022-10-16T17:29:53;100504.25;;;17.39;57.83
57791;BME280;43621;51.798;21.588;2022-10-16T17:33:58;100508.92;;;17.35;57.84
57791;BME280;43621;51.798;21.588;2022-10-16T17:38:03;100510.77;;;17.32;57.87
57791;BME280;43621;51.798;21.588;2022-10-16T17:42:08;100510.61;;;17.26;57.98
57791;BME280;43621;51.798;21.588;2022-10-16T17:46:15;100508.50;;;17.25;58.15
57791;BME280;43621;51.798;21.588;2022-10-16T17:50:20;100512.46;;;17.26;58.13
57791;BME280;43621;51.798;21.588;2022-10-16T17:54:25;100518.35;;;17.25;58.31
57791;BME280;43621;51.798;21.588;2022-10-16T17:58:30;100520.13;;;17.22;58.35
57791;BME280;43621;51.798;21.588;2022-10-16T18:02:35;100522.61;;;17.19;58.26
57791;BME280;43621;51.798;21.588;2022-10-16T18:06:41;100525.77;;;17.14;58.40
57791;BME280;43621;51.798;21.588;2022-10-16T18:10:48;100528.79;;;17.09;58.45
57791;BME280;43621;51.798;21.588;2022-10-16T18:14:53;100537.56;;;17.07;58.56
57791;BME280;43621;51.798;21.588;2022-10-16T18:19:02;100546.63;;;17.06;58.60
57791;BME280;43621;51.798;21.588;2022-10-16T18:23:07;100551.82;;;17.04;58.58
57791;BME280;43621;51.798;21.588;2022-10-16T18:27:11;100563.20;;;17.01;58.64
57791;BME280;43621;51.798;21.588;2022-10-16T18:31:17;100569.05;;;16.99;58.67
57791;BME280;43621;51.798;21.588;2022-10-16T18:35:22;100576.53;;;16.97;58.76
57791;BME280;43621;51.798;21.588;2022-10-16T18:39:27;100580.14;;;16.94;58.76
57791;BME280;43621;51.798;21.588;2022-10-16T18:43:33;100576.20;;;16.91;58.82
57791;BME280;43621;51.798;21.588;2022-10-16T18:47:39;100581.04;;;16.86;58.75
57791;BME280;43621;51.798;21.588;2022-10-16T18:51:43;100585.86;;;16.84;58.92
57791;BME280;43621;51.798;21.588;2022-10-16T18:55:54;100595.27;;;16.83;58.93
57791;BME280;43621;51.798;21.588;2022-10-16T18:59:59;100601.01;;;16.82;59.05
57791;BME280;43621;51.798;21.588;2022-10-16T19:04:06;100598.03;;;16.80;59.07
57791;BME280;43621;51.798;21.588;2022-10-16T19:08:12;100600.85;;;16.79;59.18
57791;BME280;43621;51.798;21.588;2022-10-16T19:12:17;100603.71;;;16.75;59.18
57791;BME280;43621;51.798;21.588;2022-10-16T19:16:24;100613.05;;;16.69;59.31
57791;BME280;43621;51.798;21.588;2022-10-16T19:20:30;100616.64;;;16.61;59.38
57791;BME280;43621;51.798;21.588;2022-10-16T19:24:34;100620.39;;;16.53;59.43
57791;BME280;43621;51.798;21.588;2022-10-16T19:28:40;100622.52;;;16.46;59.40
57791;BME280;43621;51.798;21.588;2022-10-16T19:32:46;100629.78;;;16.39;59.47
57791;BME280;43621;51.798;21.588;2022-10-16T19:36:53;100629.09;;;16.29;59.59
57791;BME280;43621;51.798;21.588;2022-10-16T19:41:05;100635.83;;;16.15;59.67
57791;BME280;43621;51.798;21.588;2022-10-16T19:45:11;100644.17;;;16.01;59.74
57791;BME280;43621;51.798;21.588;2022-10-16T19:49:17;100646.13;;;15.87;59.94
57791;BME280;43621;51.798;21.588;2022-10-16T19:53:25;100640.89;;;15.77;60.22
57791;BME280;43621;51.798;21.588;2022-10-16T19:57:33;100647.98;;;15.71;60.46
57791;BME280;43621;51.798;21.588;2022-10-16T20:01:38;100651.46;;;15.66;60.54
57791;BME280;43621;51.798;21.588;2022-10-16T20:05:52;100652.89;;;15.60;60.56
57791;BME280;43621;51.798;21.588;2022-10-16T20:09:58;100658.96;;;15.56;60.84
57791;BME280;43621;51.798;21.588;2022-10-16T20:14:04;100666.69;;;15.56;61.14
57791;BME280;43621;51.798;21.588;2022-10-16T20:18:09;100661.61;;;15.56;61.19
57791;BME280;43621;51.798;21.588;2022-10-16T20:22:14;100668.16;;;15.54;61.33
57791;BME280;43621;51.798;21.588;2022-10-16T20:26:20;100671.30;;;15.51;61.50
57791;BME280;43621;51.798;21.588;2022-10-16T20:30:27;100672.98;;;15.50;61.50
57791;BME280;43621;51.798;21.588;2022-10-16T20:34:32;100673.72;;;15.47;61.49
57791;BME280;43621;51.798;21.588;2022-10-16T20:38:38;100677.16;;;15.39;61.61
57791;BME280;43621;51.798;21.588;2022-10-16T20:42:43;100682.19;;;15.32;61.62
57791;BME280;43621;51.798;21.588;2022-10-16T20:46:48;100681.05;;;15.22;61.65
57791;BME280;43621;51.798;21.588;2022-10-16T20:50:53;100683.37;;;15.15;61.80
57791;BME280;43621;51.798;21.588;2022-10-16T20:54:58;100683.45;;;15.16;62.08
57791;BME280;43621;51.798;21.588;2022-10-16T20:59:04;100691.20;;;15.24;62.45
57791;BME280;43621;51.798;21.588;2022-10-16T21:03:09;100705.14;;;15.34;62.65
57791;BME280;43621;51.798;21.588;2022-10-16T21:07:14;100706.21;;;15.43;62.70
57791;BME280;43621;51.798;21.588;2022-10-16T21:11:22;100718.71;;;15.46;62.53
57791;BME280;43621;51.798;21.588;2022-10-16T21:15:27;100722.91;;;15.47;62.51
57791;BME280;43621;51.798;21.588;2022-10-16T21:19:33;100722.79;;;15.49;62.58
57791;BME280;43621;51.798;21.588;2022-10-16T21:23:38;100730.28;;;15.54;62.60
57791;BME280;43621;51.798;21.588;2022-10-16T21:27:43;100726.96;;;15.57;62.59